Time;durP1;ratioP1;P1;durP2;ratioP2;P2;SDS_P1;SDS_P2;PMS_P1;PMS_P2;Temp;Humidity;BMP_temperature;BMP_pressure;BME280_temperature;BME280_humidity;BME280_pressure;Samples;Min_cycle;Max_cycle;Signal;HPM_P1;HPM_P2
2023/11/12 00:00:09;;;;;;;82.97;30.42;;;;;;;;;;5028321;28;20083;-36
2023/11/12 00:02:36;;;;;;;81.03;34.20;;;;;;;;;;5018332;28;20034;-34
2023/11/12 00:05:03;;;;;;;94.15;35.42;;;;;;;;;;5026715;28;20053;-35
2023/11/12 00:07:30;;;;;;;84.90;30.13;;;;;;;;;;5041766;28;20036;-39
2023/11/12 00:09:57;;;;;;;81.45;30.58;;;;;;;;;;5048086;28;20025;-36
2023/11/12 00:12:27;;;;;;;75.28;27.48;;;;;;;;;;5045393;28;20395;-36
2023/11/12 00:14:54;;;;;;;76.70;28.70;;;;;;;;;;5049792;28;20049;-35
2023/11/12 00:17:21;;;;;;;79.43;28.02;;;;;;;;;;5050321;28;20025;-36
2023/11/12 00:19:48;;;;;;;64.65;23.38;;;;;;;;;;5050239;28;20064;-37
2023/11/12 00:22:16;;;;;;;60.83;23.10;;;;;;;;;;5048610;28;20032;-37
2023/11/12 00:24:43;;;;;;;57.30;22.80;;;;;;;;;;5048100;28;20054;-37
2023/11/12 00:27:10;;;;;;;49.45;18.83;;;;;;;;;;5047049;28;20031;-37
2023/11/12 00:29:37;;;;;;;43.33;17.83;;;;;;;;;;5049044;28;20037;-37
2023/11/12 00:32:04;;;;;;;36.03;14.98;;;;;;;;;;5049835;28;20029;-36
2023/11/12 00:34:31;;;;;;;38.17;12.43;;;;;;;;;;5048357;28;20039;-36
2023/11/12 00:36:58;;;;;;;30.90;10.80;;;;;;;;;;5045377;28;20078;-36
2023/11/12 00:39:26;;;;;;;27.80;10.68;;;;;;;;;;5048650;28;20032;-37
2023/11/12 00:41:53;;;;;;;30.13;11.55;;;;;;;;;;5041991;28;20159;-37
2023/11/12 00:44:23;;;;;;;35.17;10.65;;;;;;;;;;5048128;28;20045;-37
2023/11/12 00:46:50;;;;;;;25.98;8.82;;;;;;;;;;5039765;28;20045;-37
2023/11/12 00:49:20;;;;;;;30.17;9.70;;;;;;;;;;5048062;28;20372;-37
2023/11/12 00:51:47;;;;;;;30.27;9.10;;;;;;;;;;5051534;28;20090;-37
2023/11/12 00:54:14;;;;;;;36.65;9.27;;;;;;;;;;5032392;28;20025;-37
2023/11/12 00:56:41;;;;;;;29.77;8.98;;;;;;;;;;5052745;28;20696;-37
2023/11/12 00:59:08;;;;;;;27.92;8.27;;;;;;;;;;5049859;28;20035;-38
2023/11/12 01:01:35;;;;;;;30.20;7.97;;;;;;;;;;5052050;28;20082;-37
2023/11/12 01:04:03;;;;;;;33.70;6.70;;;;;;;;;;5051196;28;20506;-36
2023/11/12 01:06:30;;;;;;;28.42;7.03;;;;;;;;;;5050900;28;20036;-36
2023/11/12 01:08:57;;;;;;;31.67;7.28;;;;;;;;;;5052829;28;20041;-37
2023/11/12 01:11:24;;;;;;;31.33;7.07;;;;;;;;;;5050630;28;20119;-37
2023/11/12 01:13:51;;;;;;;28.27;7.13;;;;;;;;;;5052785;28;20107;-37
2023/11/12 01:16:19;;;;;;;32.83;7.63;;;;;;;;;;5049330;28;20068;-37
2023/11/12 01:18:46;;;;;;;28.25;6.72;;;;;;;;;;5043578;28;20030;-37
2023/11/12 01:21:14;;;;;;;42.40;8.68;;;;;;;;;;5042044;28;20028;-36
2023/11/12 01:23:41;;;;;;;32.33;6.95;;;;;;;;;;5034800;28;20045;-37
2023/11/12 01:26:08;;;;;;;33.60;7.60;;;;;;;;;;5034806;28;20037;-38
2023/11/12 01:28:35;;;;;;;37.00;7.68;;;;;;;;;;5034777;28;20140;-36
2023/11/12 01:31:03;;;;;;;30.15;6.93;;;;;;;;;;5041799;28;20036;-36
2023/11/12 01:33:30;;;;;;;41.08;7.45;;;;;;;;;;5045296;28;20029;-36
2023/11/12 01:35:57;;;;;;;30.40;6.57;;;;;;;;;;5039979;28;20036;-37
2023/11/12 01:38:24;;;;;;;39.67;7.00;;;;;;;;;;5052278;28;20116;-37
2023/11/12 01:40:51;;;;;;;34.58;6.53;;;;;;;;;;5053489;28;20151;-37
2023/11/12 01:43:19;;;;;;;27.23;5.82;;;;;;;;;;5053071;28;20525;-37
2023/11/12 01:45:46;;;;;;;29.85;6.50;;;;;;;;;;5053206;28;20037;-37
2023/11/12 01:48:15;;;;;;;33.70;7.55;;;;;;;;;;5031579;28;20063;-37
2023/11/12 01:50:45;;;;;;;26.63;7.68;;;;;;;;;;5035082;28;20042;-38
2023/11/12 01:53:29;;;;;;;34.30;8.90;;;;;;;;;;5048741;28;20071;-44
2023/11/12 01:55:58;;;;;;;37.65;9.43;;;;;;;;;;5037210;28;20036;-37
2023/11/12 01:58:25;;;;;;;35.00;8.65;;;;;;;;;;5053216;28;20036;-37
2023/11/12 02:00:52;;;;;;;31.25;7.22;;;;;;;;;;5052816;28;20039;-36
2023/11/12 02:03:20;;;;;;;35.70;8.40;;;;;;;;;;5051650;28;20039;-37
2023/11/12 02:05:47;;;;;;;28.45;6.60;;;;;;;;;;5050195;28;20380;-37
2023/11/12 02:08:15;;;;;;;30.48;7.20;;;;;;;;;;5052671;28;20029;-37
2023/11/12 02:10:48;;;;;;;28.58;5.95;;;;;;;;;;5034314;28;20033;-38
2023/11/12 02:13:15;;;;;;;24.17;5.57;;;;;;;;;;5052725;28;20028;-37
2023/11/12 02:15:44;;;;;;;31.33;6.20;;;;;;;;;;5052744;28;20422;-37
2023/11/12 02:18:11;;;;;;;35.95;5.47;;;;;;;;;;5048889;28;20483;-37
2023/11/12 02:20:47;;;;;;;27.58;5.00;;;;;;;;;;5041544;28;20029;-37
2023/11/12 02:23:15;;;;;;;25.45;3.80;;;;;;;;;;5050991;28;20043;-38
2023/11/12 02:25:45;;;;;;;29.90;3.97;;;;;;;;;;5052036;28;20079;-36
2023/11/12 02:28:14;;;;;;;23.00;3.67;;;;;;;;;;5047802;28;20037;-38
2023/11/12 02:30:41;;;;;;;15.32;3.50;;;;;;;;;;5049372;28;20382;-38
2023/11/12 02:33:09;;;;;;;16.70;3.17;;;;;;;;;;5052317;28;20025;-38
2023/11/12 02:35:42;;;;;;;20.48;3.08;;;;;;;;;;5034675;28;20025;-37
2023/11/12 02:38:12;;;;;;;15.48;2.75;;;;;;;;;;5038844;28;20479;-38
2023/11/12 02:40:39;;;;;;;18.15;2.85;;;;;;;;;;5041852;28;20133;-38
2023/11/12 02:43:07;;;;;;;16.48;2.47;;;;;;;;;;5033143;28;20020;-38
2023/11/12 02:45:34;;;;;;;10.45;2.60;;;;;;;;;;5049055;28;20108;-40
2023/11/12 02:48:01;;;;;;;18.52;2.78;;;;;;;;;;5050114;28;20032;-39
2023/11/12 02:50:32;;;;;;;14.35;2.40;;;;;;;;;;5050041;28;20032;-39
2023/11/12 02:53:00;;;;;;;16.20;3.08;;;;;;;;;;5049571;28;20037;-37
2023/11/12 02:55:31;;;;;;;12.48;2.53;;;;;;;;;;5044690;28;20018;-39
2023/11/12 02:57:58;;;;;;;14.38;2.53;;;;;;;;;;5045539;28;20064;-39
2023/11/12 03:00:27;;;;;;;14.63;2.33;;;;;;;;;;5049154;28;20025;-39
2023/11/12 03:02:58;;;;;;;16.23;2.30;;;;;;;;;;5051014;28;20124;-41
2023/11/12 03:05:26;;;;;;;11.77;2.35;;;;;;;;;;5049347;28;20052;-39
2023/11/12 03:07:53;;;;;;;12.50;2.38;;;;;;;;;;5051527;28;20044;-39
2023/11/12 03:10:21;;;;;;;5.55;1.83;;;;;;;;;;5048804;28;20037;-38
2023/11/12 03:12:48;;;;;;;12.13;2.05;;;;;;;;;;5050037;28;20036;-38
2023/11/12 03:15:18;;;;;;;7.75;1.75;;;;;;;;;;5050637;28;20078;-39
2023/11/12 03:17:45;;;;;;;11.90;1.80;;;;;;;;;;5049457;28;20475;-38
2023/11/12 03:20:14;;;;;;;12.02;1.90;;;;;;;;;;5051296;28;20029;-38
2023/11/12 03:22:41;;;;;;;10.18;1.50;;;;;;;;;;5048737;28;20048;-38
2023/11/12 03:25:09;;;;;;;10.02;2.10;;;;;;;;;;5051216;28;20036;-38
2023/11/12 03:27:36;;;;;;;13.05;1.77;;;;;;;;;;5051365;28;20462;-39
2023/11/12 03:30:04;;;;;;;6.55;1.58;;;;;;;;;;5051093;28;20025;-38
2023/11/12 03:32:31;;;;;;;16.30;1.85;;;;;;;;;;5036828;28;20048;-38
2023/11/12 03:35:00;;;;;;;5.55;1.45;;;;;;;;;;5031763;28;20053;-39
2023/11/12 03:37:27;;;;;;;9.13;2.05;;;;;;;;;;5031649;28;20387;-38
2023/11/12 03:39:55;;;;;;;8.90;1.63;;;;;;;;;;5031712;28;20871;-38
2023/11/12 03:42:22;;;;;;;8.85;1.70;;;;;;;;;;5031739;28;20029;-38
2023/11/12 03:44:52;;;;;;;10.43;1.67;;;;;;;;;;5031519;28;20033;-40
2023/11/12 03:47:19;;;;;;;10.40;1.73;;;;;;;;;;5031570;28;20041;-38
2023/11/12 03:49:46;;;;;;;8.05;1.33;;;;;;;;;;5031542;28;20033;-38
2023/11/12 03:52:13;;;;;;;14.93;1.48;;;;;;;;;;5031564;28;20037;-38
2023/11/12 03:54:40;;;;;;;7.40;1.25;;;;;;;;;;5031626;28;20037;-38
2023/11/12 03:57:07;;;;;;;11.20;1.48;;;;;;;;;;5031486;28;20037;-38
2023/11/12 03:59:36;;;;;;;7.28;1.30;;;;;;;;;;5031406;28;20025;-38
2023/11/12 04:02:04;;;;;;;10.38;1.40;;;;;;;;;;5031579;28;20025;-38
2023/11/12 04:04:31;;;;;;;10.45;1.75;;;;;;;;;;5030916;28;20144;-39
2023/11/12 04:06:58;;;;;;;7.15;1.15;;;;;;;;;;5031406;28;20134;-38
2023/11/12 04:09:25;;;;;;;6.85;1.20;;;;;;;;;;5031328;28;20026;-38
2023/11/12 04:11:52;;;;;;;5.15;1.10;;;;;;;;;;5031485;28;20030;-39
2023/11/12 04:14:20;;;;;;;14.32;1.55;;;;;;;;;;5031343;28;20121;-38
2023/11/12 04:16:47;;;;;;;8.50;1.20;;;;;;;;;;5031520;28;20489;-39
2023/11/12 04:19:14;;;;;;;11.27;1.45;;;;;;;;;;5031165;28;20067;-38
2023/11/12 04:21:41;;;;;;;5.57;1.13;;;;;;;;;;5031071;28;20040;-39
2023/11/12 04:24:08;;;;;;;3.88;1.08;;;;;;;;;;5031335;28;20057;-40
2023/11/12 04:26:35;;;;;;;8.82;1.30;;;;;;;;;;5034037;28;20103;-38
2023/11/12 04:29:06;;;;;;;6.15;1.10;;;;;;;;;;5035136;28;20388;-38
2023/11/12 04:31:35;;;;;;;15.52;1.35;;;;;;;;;;5035123;28;20521;-39
2023/11/12 04:34:02;;;;;;;8.05;1.17;;;;;;;;;;5033838;28;20124;-38
2023/11/12 04:36:29;;;;;;;11.68;1.10;;;;;;;;;;5035059;28;20558;-38
2023/11/12 04:38:59;;;;;;;11.57;1.30;;;;;;;;;;5035006;28;20033;-38
2023/11/12 04:41:27;;;;;;;6.13;1.25;;;;;;;;;;5017984;28;20056;-39
2023/11/12 04:43:55;;;;;;;3.92;0.85;;;;;;;;;;5034944;28;20064;-38
2023/11/12 04:46:22;;;;;;;8.45;1.20;;;;;;;;;;5035019;28;20025;-38
2023/11/12 04:48:49;;;;;;;9.32;1.02;;;;;;;;;;5034781;28;20091;-38
2023/11/12 04:51:16;;;;;;;6.15;0.77;;;;;;;;;;5034871;28;20038;-38
2023/11/12 04:53:43;;;;;;;6.22;0.98;;;;;;;;;;5044205;28;20029;-39
2023/11/12 04:56:11;;;;;;;6.38;1.30;;;;;;;;;;5054702;28;20036;-39
2023/11/12 04:58:38;;;;;;;5.75;0.90;;;;;;;;;;5054480;28;20112;-38
2023/11/12 05:01:06;;;;;;;5.40;1.02;;;;;;;;;;5054650;28;20025;-38
2023/11/12 05:03:33;;;;;;;5.43;0.80;;;;;;;;;;5054369;28;20033;-38
2023/11/12 05:06:00;;;;;;;11.98;1.05;;;;;;;;;;5054329;28;20435;-38
2023/11/12 05:08:28;;;;;;;3.47;0.73;;;;;;;;;;5054527;28;20055;-38
2023/11/12 05:10:55;;;;;;;6.22;0.73;;;;;;;;;;5053274;28;20040;-38
2023/11/12 05:13:22;;;;;;;3.90;0.73;;;;;;;;;;5054334;28;20052;-38
2023/11/12 05:15:49;;;;;;;21.83;1.40;;;;;;;;;;5036293;28;20052;-38
2023/11/12 05:18:16;;;;;;;2.28;0.63;;;;;;;;;;5054265;28;20426;-38
2023/11/12 05:20:43;;;;;;;3.22;0.82;;;;;;;;;;5054206;28;20491;-38
2023/11/12 05:23:10;;;;;;;5.70;0.70;;;;;;;;;;5054126;28;20065;-38
2023/11/12 05:25:37;;;;;;;9.82;0.90;;;;;;;;;;5054249;28;20040;-38
2023/11/12 05:28:05;;;;;;;10.60;1.20;;;;;;;;;;5046980;28;20060;-38
2023/11/12 05:30:33;;;;;;;12.13;1.30;;;;;;;;;;5033986;28;20033;-38
2023/11/12 05:33:00;;;;;;;5.05;0.82;;;;;;;;;;5033950;28;20037;-38
2023/11/12 05:35:27;;;;;;;4.65;0.70;;;;;;;;;;5016198;28;20447;-37
2023/11/12 05:37:54;;;;;;;11.02;1.25;;;;;;;;;;5033787;28;20045;-37
2023/11/12 05:40:21;;;;;;;3.55;0.80;;;;;;;;;;5034015;28;20037;-38
2023/11/12 05:42:48;;;;;;;8.05;0.70;;;;;;;;;;5033995;28;20033;-38
2023/11/12 05:45:15;;;;;;;6.15;0.90;;;;;;;;;;5033730;28;20434;-37
2023/11/12 05:47:42;;;;;;;4.05;0.60;;;;;;;;;;5032496;28;20466;-38
2023/11/12 05:50:09;;;;;;;6.05;0.80;;;;;;;;;;5033722;28;20035;-38
2023/11/12 05:52:37;;;;;;;3.38;0.98;;;;;;;;;;5033724;28;20037;-38
2023/11/12 05:55:05;;;;;;;2.15;0.90;;;;;;;;;;5033793;28;20552;-39
2023/11/12 05:57:32;;;;;;;4.90;0.70;;;;;;;;;;5033672;28;20057;-37
2023/11/12 05:59:59;;;;;;;8.38;0.73;;;;;;;;;;5033570;28;20033;-38
2023/11/12 06:02:25;;;;;;;6.38;0.77;;;;;;;;;;5034802;28;20120;-38
2023/11/12 06:04:52;;;;;;;5.90;0.93;;;;;;;;;;5033301;28;20136;-37
2023/11/12 06:07:19;;;;;;;4.45;0.80;;;;;;;;;;5033517;28;20041;-37
2023/11/12 06:09:46;;;;;;;6.55;0.50;;;;;;;;;;5033354;28;20036;-37
2023/11/12 06:12:13;;;;;;;7.50;0.80;;;;;;;;;;5033412;28;20104;-38
2023/11/12 06:14:40;;;;;;;5.80;0.60;;;;;;;;;;5033324;28;20044;-37
2023/11/12 06:17:07;;;;;;;5.35;0.60;;;;;;;;;;5033373;28;20026;-38
2023/11/12 06:19:34;;;;;;;4.13;0.68;;;;;;;;;;5032959;28;20106;-38
2023/11/12 06:22:02;;;;;;;7.32;0.60;;;;;;;;;;5033250;28;20030;-38
2023/11/12 06:24:29;;;;;;;4.70;0.60;;;;;;;;;;5033122;28;20056;-38
2023/11/12 06:26:56;;;;;;;7.40;0.85;;;;;;;;;;5032726;28;20075;-37
2023/11/12 06:29:23;;;;;;;5.15;0.70;;;;;;;;;;5032712;28;20040;-38
2023/11/12 06:31:51;;;;;;;5.40;0.75;;;;;;;;;;5032863;28;20106;-38
2023/11/12 06:34:18;;;;;;;8.52;0.88;;;;;;;;;;5015016;28;20095;-38
2023/11/12 06:36:45;;;;;;;8.57;0.93;;;;;;;;;;5032704;28;20061;-38
2023/11/12 06:39:16;;;;;;;5.50;0.77;;;;;;;;;;5032812;28;20522;-38
2023/11/12 06:41:43;;;;;;;3.25;0.60;;;;;;;;;;5032726;28;20113;-38
2023/11/12 06:44:11;;;;;;;3.95;0.75;;;;;;;;;;5032619;28;20096;-37
2023/11/12 06:46:44;;;;;;;4.57;0.50;;;;;;;;;;5032635;28;20400;-37
2023/11/12 06:49:10;;;;;;;3.83;0.40;;;;;;;;;;5031939;28;20035;-37
2023/11/12 06:51:37;;;;;;;4.93;0.60;;;;;;;;;;5032631;28;20119;-38
2023/11/12 06:54:04;;;;;;;5.43;0.50;;;;;;;;;;5032481;28;20491;-38
2023/11/12 06:56:34;;;;;;;3.47;0.55;;;;;;;;;;5032512;28;20030;-38
2023/11/12 06:59:02;;;;;;;4.70;0.50;;;;;;;;;;5032392;28;20041;-38
2023/11/12 07:01:29;;;;;;;3.50;0.60;;;;;;;;;;5032262;28;20072;-38
2023/11/12 07:03:56;;;;;;;3.38;0.52;;;;;;;;;;5032100;28;20107;-38
2023/11/12 07:06:23;;;;;;;0.73;0.25;;;;;;;;;;5032275;28;20041;-38
2023/11/12 07:08:50;;;;;;;2.08;0.50;;;;;;;;;;5032200;28;20025;-38
2023/11/12 07:11:17;;;;;;;2.70;0.50;;;;;;;;;;5032367;28;20025;-38
2023/11/12 07:13:44;;;;;;;3.53;0.40;;;;;;;;;;5032134;28;20033;-38
2023/11/12 07:16:20;;;;;;;2.70;0.52;;;;;;;;;;5032011;28;20128;-38
2023/11/12 07:18:47;;;;;;;2.35;0.50;;;;;;;;;;5032062;28;20037;-38
2023/11/12 07:21:14;;;;;;;1.90;0.30;;;;;;;;;;5032160;28;20068;-38
2023/11/12 07:23:41;;;;;;;3.05;0.40;;;;;;;;;;5031922;28;20033;-38
2023/11/12 07:26:09;;;;;;;1.75;0.40;;;;;;;;;;5032059;28;20040;-38
2023/11/12 07:28:37;;;;;;;5.00;0.50;;;;;;;;;;5031932;28;20029;-38
2023/11/12 07:31:04;;;;;;;2.90;0.50;;;;;;;;;;5031794;28;20091;-38
2023/11/12 07:33:31;;;;;;;1.85;0.52;;;;;;;;;;5031615;28;20443;-38
2023/11/12 07:35:59;;;;;;;2.20;0.40;;;;;;;;;;5031893;28;20067;-38
2023/11/12 07:38:26;;;;;;;2.58;0.22;;;;;;;;;;5031880;28;20037;-38
2023/11/12 07:40:54;;;;;;;1.27;0.32;;;;;;;;;;5031649;28;20128;-38
2023/11/12 07:43:21;;;;;;;3.22;0.40;;;;;;;;;;5031823;28;20025;-38
2023/11/12 07:45:48;;;;;;;3.92;0.43;;;;;;;;;;5031795;28;20506;-38
2023/11/12 07:48:15;;;;;;;2.30;0.50;;;;;;;;;;5031721;28;20033;-38
2023/11/12 07:50:42;;;;;;;1.77;0.30;;;;;;;;;;5031511;28;20029;-38
2023/11/12 07:53:09;;;;;;;1.45;0.30;;;;;;;;;;5031622;28;20028;-38
2023/11/12 07:55:36;;;;;;;2.38;0.50;;;;;;;;;;5031652;28;20476;-38
2023/11/12 07:58:03;;;;;;;1.95;0.30;;;;;;;;;;5031548;28;20164;-38
2023/11/12 08:00:30;;;;;;;2.70;0.40;;;;;;;;;;5031489;28;20079;-38
2023/11/12 08:02:58;;;;;;;2.25;0.55;;;;;;;;;;5031612;28;20026;-37
2023/11/12 08:05:25;;;;;;;2.80;0.50;;;;;;;;;;5031393;28;20124;-37
2023/11/12 08:07:52;;;;;;;3.85;0.50;;;;;;;;;;5031471;28;20041;-38
2023/11/12 08:10:20;;;;;;;1.40;0.30;;;;;;;;;;5031391;28;20087;-38
2023/11/12 08:12:46;;;;;;;1.98;0.38;;;;;;;;;;5031319;28;20035;-38
2023/11/12 08:15:14;;;;;;;2.78;0.45;;;;;;;;;;5031400;28;20057;-38
2023/11/12 08:17:41;;;;;;;5.55;0.60;;;;;;;;;;5031307;28;20468;-38
2023/11/12 08:20:09;;;;;;;3.78;0.50;;;;;;;;;;5031341;28;20086;-38
2023/11/12 08:22:36;;;;;;;5.10;0.93;;;;;;;;;;5031562;28;20040;-38
2023/11/12 08:25:03;;;;;;;3.30;0.70;;;;;;;;;;5031217;28;20026;-38
2023/11/12 08:27:30;;;;;;;3.63;0.90;;;;;;;;;;5031251;28;20431;-38
2023/11/12 08:29:58;;;;;;;3.28;0.40;;;;;;;;;;5031203;28;20108;-38
2023/11/12 08:32:25;;;;;;;3.13;0.57;;;;;;;;;;5031411;28;20030;-38
2023/11/12 08:34:52;;;;;;;1.65;0.40;;;;;;;;;;5029897;28;20030;-38
2023/11/12 08:37:19;;;;;;;3.13;0.50;;;;;;;;;;5043414;28;20039;-38
2023/11/12 08:39:46;;;;;;;5.40;0.47;;;;;;;;;;5041054;28;20029;-38
2023/11/12 08:42:13;;;;;;;4.68;0.77;;;;;;;;;;5031306;28;20109;-38
2023/11/12 08:44:40;;;;;;;1.75;0.68;;;;;;;;;;5031212;28;20017;-38
2023/11/12 08:47:08;;;;;;;2.67;0.40;;;;;;;;;;5031278;28;20045;-39
2023/11/12 08:49:35;;;;;;;5.70;0.40;;;;;;;;;;5031066;28;20017;-38
2023/11/12 08:52:02;;;;;;;7.13;0.50;;;;;;;;;;5031131;28;20041;-38
2023/11/12 08:54:29;;;;;;;3.53;0.50;;;;;;;;;;5048879;28;20502;-39
2023/11/12 08:56:56;;;;;;;5.25;0.50;;;;;;;;;;5039387;28;20037;-38
2023/11/12 08:59:23;;;;;;;6.90;0.50;;;;;;;;;;5031019;28;20026;-38
2023/11/12 09:01:50;;;;;;;5.57;0.70;;;;;;;;;;5031060;28;20086;-38
2023/11/12 09:04:17;;;;;;;2.97;0.70;;;;;;;;;;5030763;28;20402;-38
2023/11/12 09:06:44;;;;;;;9.85;0.63;;;;;;;;;;5031035;28;20056;-38
2023/11/12 09:09:11;;;;;;;3.30;0.50;;;;;;;;;;5030919;28;20053;-38
2023/11/12 09:11:38;;;;;;;3.95;0.50;;;;;;;;;;5032002;28;20029;-38
2023/11/12 09:14:06;;;;;;;2.72;0.50;;;;;;;;;;5047868;28;20029;-38
2023/11/12 09:16:34;;;;;;;3.88;0.60;;;;;;;;;;5054266;28;20113;-38
2023/11/12 09:19:01;;;;;;;2.22;0.40;;;;;;;;;;5054296;28;20025;-38
2023/11/12 09:21:31;;;;;;;3.33;0.60;;;;;;;;;;5054364;28;20555;-38
2023/11/12 09:23:58;;;;;;;6.30;0.50;;;;;;;;;;5053958;28;20076;-38
2023/11/12 09:26:25;;;;;;;2.60;0.55;;;;;;;;;;5054300;28;20471;-38
2023/11/12 09:28:52;;;;;;;3.70;0.63;;;;;;;;;;5046916;28;20025;-38
2023/11/12 09:31:19;;;;;;;2.22;0.43;;;;;;;;;;5034125;28;20470;-38
2023/11/12 09:33:47;;;;;;;5.43;0.73;;;;;;;;;;5034050;28;20029;-38
2023/11/12 09:36:15;;;;;;;4.03;0.60;;;;;;;;;;5034144;28;20537;-38
2023/11/12 09:38:42;;;;;;;3.72;0.43;;;;;;;;;;5033950;28;20109;-38
2023/11/12 09:41:10;;;;;;;3.17;0.50;;;;;;;;;;5034095;28;20083;-38
2023/11/12 09:43:37;;;;;;;6.32;0.50;;;;;;;;;;5033572;28;20079;-38
2023/11/12 09:46:08;;;;;;;6.95;0.68;;;;;;;;;;5034009;28;20014;-38
2023/11/12 09:48:42;;;;;;;1.48;0.40;;;;;;;;;;5033843;28;20095;-38
2023/11/12 09:51:11;;;;;;;4.15;0.55;;;;;;;;;;5033775;28;20075;-38
2023/11/12 09:53:41;;;;;;;4.15;0.65;;;;;;;;;;5033594;28;20029;-37
2023/11/12 09:56:08;;;;;;;3.50;0.50;;;;;;;;;;5033713;28;20022;-38
2023/11/12 09:58:39;;;;;;;6.55;0.70;;;;;;;;;;5033530;28;20032;-38
2023/11/12 10:01:07;;;;;;;9.05;0.75;;;;;;;;;;5033291;28;20036;-37
2023/11/12 10:03:35;;;;;;;4.68;0.65;;;;;;;;;;5033523;28;20044;-38
2023/11/12 10:06:03;;;;;;;1.98;0.50;;;;;;;;;;5034134;28;20032;-38
2023/11/12 10:08:30;;;;;;;5.22;0.55;;;;;;;;;;5053320;28;20121;-38
2023/11/12 10:11:15;;;;;;;4.45;0.63;;;;;;;;;;5053186;28;20023;-38
2023/11/12 10:13:42;;;;;;;6.15;0.50;;;;;;;;;;5050358;28;20064;-37
2023/11/12 10:16:26;;;;;;;2.25;0.50;;;;;;;;;;5053320;28;20025;-38
2023/11/12 10:18:53;;;;;;;5.32;0.60;;;;;;;;;;5033070;28;20660;-38
2023/11/12 10:21:20;;;;;;;7.43;0.50;;;;;;;;;;5049988;28;20029;-38
2023/11/12 10:23:47;;;;;;;2.33;0.80;;;;;;;;;;5051935;28;20410;-38
2023/11/12 10:26:15;;;;;;;5.15;0.73;;;;;;;;;;5052792;28;20048;-38
2023/11/12 10:28:42;;;;;;;2.03;0.73;;;;;;;;;;5034696;28;20476;-38
2023/11/12 10:31:13;;;;;;;2.35;0.63;;;;;;;;;;5050138;28;20072;-38
2023/11/12 10:33:41;;;;;;;2.43;0.60;;;;;;;;;;5051309;28;20120;-38
2023/11/12 10:36:09;;;;;;;3.78;0.50;;;;;;;;;;5032679;28;20033;-39
2023/11/12 10:38:49;;;;;;;4.22;0.70;;;;;;;;;;5032749;28;20026;-38
2023/11/12 10:41:16;;;;;;;3.80;0.80;;;;;;;;;;5049507;28;20029;-38
2023/11/12 10:43:57;;;;;;;2.53;0.50;;;;;;;;;;5051981;28;20036;-37
2023/11/12 10:46:25;;;;;;;3.65;0.52;;;;;;;;;;5051401;28;20079;-39
2023/11/12 10:48:55;;;;;;;5.15;0.60;;;;;;;;;;5051064;28;20088;-38
2023/11/12 10:51:22;;;;;;;7.32;0.80;;;;;;;;;;5050756;28;20601;-39
2023/11/12 10:53:54;;;;;;;5.63;0.63;;;;;;;;;;5052134;28;20434;-39
2023/11/12 10:56:22;;;;;;;9.90;0.70;;;;;;;;;;5051937;28;20040;-40
2023/11/12 10:58:50;;;;;;;7.40;1.08;;;;;;;;;;5051866;28;20083;-38
2023/11/12 11:01:17;;;;;;;11.35;1.00;;;;;;;;;;5047188;28;20029;-38
2023/11/12 11:03:45;;;;;;;6.75;0.80;;;;;;;;;;5048002;28;20071;-38
2023/11/12 11:06:12;;;;;;;3.65;0.60;;;;;;;;;;5048981;28;20555;-38
2023/11/12 11:08:39;;;;;;;5.63;0.80;;;;;;;;;;5052050;28;20131;-38
2023/11/12 11:11:07;;;;;;;5.35;0.60;;;;;;;;;;5051115;28;20029;-39
2023/11/12 11:13:35;;;;;;;7.10;0.90;;;;;;;;;;5042684;28;20013;-37
2023/11/12 11:16:02;;;;;;;8.43;1.10;;;;;;;;;;5041860;28;20482;-38
2023/11/12 11:18:31;;;;;;;11.15;0.90;;;;;;;;;;5040379;28;20069;-38
2023/11/12 11:24:02;;;;;;;7.75;0.90;;;;;;;;;;5043549;28;20381;-38
2023/11/12 11:26:34;;;;;;;9.98;1.00;;;;;;;;;;5026200;28;20029;-38
2023/11/12 11:29:12;;;;;;;6.28;0.70;;;;;;;;;;5041288;28;20017;-37
2023/11/12 11:31:42;;;;;;;6.30;0.60;;;;;;;;;;5029123;28;20029;-38
2023/11/12 11:34:13;;;;;;;12.35;0.88;;;;;;;;;;5051431;28;20029;-38
2023/11/12 11:36:42;;;;;;;2.80;0.50;;;;;;;;;;5051769;28;20491;-38
2023/11/12 11:39:17;;;;;;;11.02;1.08;;;;;;;;;;5034438;28;20037;-37
2023/11/12 11:41:44;;;;;;;12.10;0.85;;;;;;;;;;5040167;28;20029;-37
2023/11/12 11:44:29;;;;;;;5.82;0.43;;;;;;;;;;5051726;28;20028;-37
2023/11/12 11:47:16;;;;;;;5.88;0.90;;;;;;;;;;5051705;28;20021;-37
2023/11/12 11:49:44;;;;;;;4.32;0.70;;;;;;;;;;5051569;28;20483;-38
2023/11/12 11:52:12;;;;;;;4.15;1.00;;;;;;;;;;5051623;28;20033;-37
2023/11/12 11:54:39;;;;;;;4.30;0.70;;;;;;;;;;5038684;28;20383;-37
2023/11/12 11:57:06;;;;;;;7.38;0.65;;;;;;;;;;5031722;28;20036;-38
2023/11/12 11:59:36;;;;;;;4.95;1.02;;;;;;;;;;5031436;28;20164;-38
2023/11/12 12:02:15;;;;;;;8.15;0.70;;;;;;;;;;5031218;28;20037;-38
2023/11/12 12:04:51;;;;;;;7.25;0.63;;;;;;;;;;5031341;28;20400;-37
2023/11/12 12:07:19;;;;;;;4.85;1.10;;;;;;;;;;5031514;28;20021;-38
2023/11/12 12:09:46;;;;;;;7.75;0.93;;;;;;;;;;5031467;28;20056;-37
2023/11/12 12:12:13;;;;;;;11.70;1.00;;;;;;;;;;5031434;28;20032;-37
2023/11/12 12:14:41;;;;;;;5.38;0.65;;;;;;;;;;5031443;28;20029;-37
2023/11/12 12:17:08;;;;;;;7.63;1.02;;;;;;;;;;5031282;28;20029;-37
2023/11/12 12:19:35;;;;;;;7.57;0.73;;;;;;;;;;5031168;28;20037;-38
2023/11/12 12:22:04;;;;;;;5.43;0.70;;;;;;;;;;5031366;28;20100;-37
2023/11/12 12:24:35;;;;;;;5.25;0.70;;;;;;;;;;5031309;28;20395;-37
2023/11/12 12:27:09;;;;;;;10.07;0.82;;;;;;;;;;5031367;28;20021;-38
2023/11/12 12:29:38;;;;;;;19.95;1.95;;;;;;;;;;5031121;28;20029;-38
2023/11/12 12:32:20;;;;;;;11.63;1.23;;;;;;;;;;5031214;28;20080;-38
2023/11/12 12:34:56;;;;;;;;;;;;;;;;;;5031324;28;20510;-38
2023/11/12 12:37:28;;;;;;;5.10;1.10;;;;;;;;;;5031102;28;19909;-38
2023/11/12 12:40:21;;;;;;;12.85;0.80;;;;;;;;;;5031279;28;20030;-37
2023/11/12 12:42:54;;;;;;;13.48;0.93;;;;;;;;;;5030343;28;20045;-38
2023/11/12 12:45:21;;;;;;;9.02;0.95;;;;;;;;;;5031080;28;20037;-38
2023/11/12 12:47:48;;;;;;;8.23;1.20;;;;;;;;;;5034099;28;20025;-38
2023/11/12 12:50:25;;;;;;;14.68;1.00;;;;;;;;;;5034971;28;20021;-38
2023/11/12 12:52:53;;;;;;;9.38;1.00;;;;;;;;;;5034566;28;20041;-38
2023/11/12 12:55:21;;;;;;;17.65;1.25;;;;;;;;;;5034787;28;20025;-38
2023/11/12 12:57:52;;;;;;;10.55;1.05;;;;;;;;;;5034831;28;20128;-38
2023/11/12 13:00:20;;;;;;;8.57;1.00;;;;;;;;;;5034808;28;20073;-38
2023/11/12 13:02:48;;;;;;;10.70;1.85;;;;;;;;;;5034570;28;20037;-38
2023/11/12 13:05:19;;;;;;;18.33;1.50;;;;;;;;;;5034637;28;20155;-43
2023/11/12 13:07:49;;;;;;;10.45;1.20;;;;;;;;;;5034436;28;20057;-37
2023/11/12 13:10:20;;;;;;;16.25;1.30;;;;;;;;;;5046328;28;20052;-37
2023/11/12 13:12:54;;;;;;;14.25;1.40;;;;;;;;;;5054427;28;20115;-38
2023/11/12 13:15:21;;;;;;;12.13;1.42;;;;;;;;;;5052970;28;20057;-37
2023/11/12 13:17:48;;;;;;;10.45;1.10;;;;;;;;;;5045312;28;20075;-37
2023/11/12 13:20:16;;;;;;;9.13;1.20;;;;;;;;;;5044182;28;20020;-38
2023/11/12 13:22:45;;;;;;;16.88;1.45;;;;;;;;;;5043948;28;20033;-38
2023/11/12 13:25:14;;;;;;;14.10;1.35;;;;;;;;;;5042315;28;20550;-38
2023/11/12 13:27:45;;;;;;;11.82;1.40;;;;;;;;;;5043830;28;20033;-38
2023/11/12 13:30:14;;;;;;;15.95;1.63;;;;;;;;;;5033930;28;20025;-38
2023/11/12 13:32:41;;;;;;;14.40;1.35;;;;;;;;;;5034100;28;20018;-38
2023/11/12 13:35:09;;;;;;;10.65;1.30;;;;;;;;;;5034059;28;20029;-38
2023/11/12 13:37:36;;;;;;;8.48;1.13;;;;;;;;;;5033667;28;20045;-37
2023/11/12 13:40:05;;;;;;;9.48;1.10;;;;;;;;;;5033769;28;20041;-38
2023/11/12 13:42:35;;;;;;;11.57;1.33;;;;;;;;;;5036200;28;20033;-37
2023/11/12 13:45:03;;;;;;;13.35;1.38;;;;;;;;;;5044211;28;20371;-37
2023/11/12 13:47:30;;;;;;;17.05;1.48;;;;;;;;;;5043001;28;20041;-37
2023/11/12 13:49:59;;;;;;;12.88;1.45;;;;;;;;;;5044567;28;20102;-38
2023/11/12 13:52:27;;;;;;;7.15;0.90;;;;;;;;;;5043999;28;20099;-38
2023/11/12 13:54:55;;;;;;;11.70;0.80;;;;;;;;;;5043043;28;20199;-38
2023/11/12 13:57:22;;;;;;;13.10;0.98;;;;;;;;;;5043980;28;20040;-38
2023/11/12 13:59:49;;;;;;;8.90;1.20;;;;;;;;;;5038262;28;20104;-38
2023/11/12 14:02:16;;;;;;;9.95;1.00;;;;;;;;;;5033628;28;20022;-38
2023/11/12 14:04:44;;;;;;;6.32;1.13;;;;;;;;;;5033392;28;20053;-38
2023/11/12 14:07:11;;;;;;;9.85;1.08;;;;;;;;;;5033531;28;20121;-38
2023/11/12 14:09:38;;;;;;;8.15;1.27;;;;;;;;;;5015545;28;20079;-37
2023/11/12 14:12:06;;;;;;;9.52;1.20;;;;;;;;;;5033507;28;20076;-38
2023/11/12 14:14:36;;;;;;;7.47;0.98;;;;;;;;;;5034158;28;20463;-39
2023/11/12 14:17:07;;;;;;;11.55;1.35;;;;;;;;;;5047861;28;20029;-37
2023/11/12 14:19:35;;;;;;;13.38;1.58;;;;;;;;;;5052562;28;20045;-40
2023/11/12 14:22:02;;;;;;;10.02;1.35;;;;;;;;;;5053095;28;20032;-38
2023/11/12 14:24:29;;;;;;;11.50;1.58;;;;;;;;;;5052845;28;20070;-38
2023/11/12 14:26:57;;;;;;;7.03;1.48;;;;;;;;;;5052873;28;20099;-37
2023/11/12 14:29:27;;;;;;;14.73;1.55;;;;;;;;;;5052496;28;20037;-37
2023/11/12 14:31:54;;;;;;;9.13;1.27;;;;;;;;;;5047327;28;20029;-38
2023/11/12 14:34:23;;;;;;;16.88;2.00;;;;;;;;;;5048266;28;20044;-38
2023/11/12 14:36:50;;;;;;;11.10;2.45;;;;;;;;;;5052400;28;20405;-38
2023/11/12 14:39:23;;;;;;;10.82;1.60;;;;;;;;;;5047515;28;20190;-37
2023/11/12 14:41:53;;;;;;;8.57;1.60;;;;;;;;;;5052312;28;20033;-38
2023/11/12 14:44:21;;;;;;;10.93;1.58;;;;;;;;;;5052404;28;20032;-38
2023/11/12 14:46:48;;;;;;;11.63;1.50;;;;;;;;;;5047125;28;20032;-37